sensor_id;sensor_type;location;lat;lon;timestamp;P1;durP1;ratioP1;P2;durP2;ratioP2
69900;SDS011;57183;50.930;5.406;2023-06-19T00:01:47;4.82;;;3.10;;
69900;SDS011;57183;50.930;5.406;2023-06-19T00:04:13;4.20;;;3.30;;
69900;SDS011;57183;50.930;5.406;2023-06-19T00:06:39;4.45;;;2.90;;
69900;SDS011;57183;50.930;5.406;2023-06-19T00:09:06;3.92;;;2.78;;
69900;SDS011;57183;50.930;5.406;2023-06-19T00:11:32;4.43;;;3.20;;
69900;SDS011;57183;50.930;5.406;2023-06-19T00:13:57;4.75;;;3.33;;
69900;SDS011;57183;50.930;5.406;2023-06-19T00:16:23;4.65;;;3.28;;
69900;SDS011;57183;50.930;5.406;2023-06-19T00:18:50;5.18;;;2.85;;
69900;SDS011;57183;50.930;5.406;2023-06-19T00:21:16;3.50;;;2.90;;
69900;SDS011;57183;50.930;5.406;2023-06-19T00:23:42;4.25;;;3.25;;
69900;SDS011;57183;50.930;5.406;2023-06-19T00:26:08;3.80;;;2.78;;
69900;SDS011;57183;50.930;5.406;2023-06-19T00:28:33;3.65;;;2.92;;
69900;SDS011;57183;50.930;5.406;2023-06-19T00:30:59;5.20;;;3.08;;
69900;SDS011;57183;50.930;5.406;2023-06-19T00:33:25;4.50;;;3.28;;
69900;SDS011;57183;50.930;5.406;2023-06-19T00:35:51;3.45;;;2.78;;
69900;SDS011;57183;50.930;5.406;2023-06-19T00:38:17;3.50;;;2.55;;
69900;SDS011;57183;50.930;5.406;2023-06-19T00:40:42;6.45;;;3.33;;
69900;SDS011;57183;50.930;5.406;2023-06-19T00:43:08;3.30;;;2.50;;
69900;SDS011;57183;50.930;5.406;2023-06-19T00:45:35;4.03;;;2.78;;
69900;SDS011;57183;50.930;5.406;2023-06-19T00:48:01;4.05;;;3.22;;
69900;SDS011;57183;50.930;5.406;2023-06-19T00:50:29;4.68;;;2.97;;
69900;SDS011;57183;50.930;5.406;2023-06-19T00:52:55;4.97;;;2.65;;
69900;SDS011;57183;50.930;5.406;2023-06-19T00:55:21;3.28;;;2.65;;
69900;SDS011;57183;50.930;5.406;2023-06-19T00:57:47;6.10;;;2.88;;
69900;SDS011;57183;50.930;5.406;2023-06-19T01:00:14;3.03;;;2.63;;
69900;SDS011;57183;50.930;5.406;2023-06-19T01:02:40;3.75;;;3.13;;
69900;SDS011;57183;50.930;5.406;2023-06-19T01:05:06;3.45;;;2.70;;
69900;SDS011;57183;50.930;5.406;2023-06-19T01:10:39;3.45;;;2.72;;
69900;SDS011;57183;50.930;5.406;2023-06-19T01:13:08;4.15;;;3.28;;
69900;SDS011;57183;50.930;5.406;2023-06-19T01:15:45;3.03;;;2.63;;
69900;SDS011;57183;50.930;5.406;2023-06-19T01:18:12;4.68;;;2.72;;
69900;SDS011;57183;50.930;5.406;2023-06-19T01:20:39;3.95;;;3.03;;
69900;SDS011;57183;50.930;5.406;2023-06-19T01:23:07;3.22;;;2.60;;
69900;SDS011;57183;50.930;5.406;2023-06-19T01:25:33;3.92;;;3.15;;
69900;SDS011;57183;50.930;5.406;2023-06-19T01:28:00;3.28;;;2.65;;
69900;SDS011;57183;50.930;5.406;2023-06-19T01:30:27;3.00;;;2.60;;
69900;SDS011;57183;50.930;5.406;2023-06-19T01:32:58;3.47;;;2.78;;
69900;SDS011;57183;50.930;5.406;2023-06-19T01:35:34;3.65;;;2.33;;
69900;SDS011;57183;50.930;5.406;2023-06-19T01:38:01;3.08;;;2.35;;
69900;SDS011;57183;50.930;5.406;2023-06-19T01:40:28;3.13;;;2.08;;
69900;SDS011;57183;50.930;5.406;2023-06-19T01:42:56;2.70;;;2.40;;
69900;SDS011;57183;50.930;5.406;2023-06-19T01:45:24;3.63;;;2.95;;
69900;SDS011;57183;50.930;5.406;2023-06-19T01:47:50;4.05;;;2.83;;
69900;SDS011;57183;50.930;5.406;2023-06-19T01:50:16;5.00;;;2.35;;
69900;SDS011;57183;50.930;5.406;2023-06-19T01:52:42;3.63;;;2.20;;
69900;SDS011;57183;50.930;5.406;2023-06-19T01:55:07;4.13;;;2.38;;
69900;SDS011;57183;50.930;5.406;2023-06-19T01:57:34;3.58;;;2.35;;
69900;SDS011;57183;50.930;5.406;2023-06-19T02:00:01;3.35;;;2.67;;
69900;SDS011;57183;50.930;5.406;2023-06-19T02:02:30;3.92;;;2.30;;
69900;SDS011;57183;50.930;5.406;2023-06-19T02:04:55;3.75;;;2.65;;
69900;SDS011;57183;50.930;5.406;2023-06-19T02:07:21;4.32;;;2.65;;
69900;SDS011;57183;50.930;5.406;2023-06-19T02:09:47;4.40;;;2.45;;
69900;SDS011;57183;50.930;5.406;2023-06-19T02:12:13;3.50;;;2.55;;
69900;SDS011;57183;50.930;5.406;2023-06-19T02:14:38;3.03;;;2.00;;
69900;SDS011;57183;50.930;5.406;2023-06-19T02:17:04;4.05;;;2.33;;
69900;SDS011;57183;50.930;5.406;2023-06-19T02:19:30;2.65;;;2.42;;
69900;SDS011;57183;50.930;5.406;2023-06-19T02:21:55;4.20;;;2.30;;
69900;SDS011;57183;50.930;5.406;2023-06-19T02:24:21;3.15;;;2.10;;
69900;SDS011;57183;50.930;5.406;2023-06-19T02:26:47;3.95;;;2.30;;
69900;SDS011;57183;50.930;5.406;2023-06-19T02:29:12;3.33;;;2.20;;
69900;SDS011;57183;50.930;5.406;2023-06-19T02:31:38;4.53;;;2.60;;
69900;SDS011;57183;50.930;5.406;2023-06-19T02:34:04;2.90;;;2.28;;
69900;SDS011;57183;50.930;5.406;2023-06-19T02:36:29;4.97;;;2.33;;
69900;SDS011;57183;50.930;5.406;2023-06-19T02:38:55;4.82;;;2.35;;
69900;SDS011;57183;50.930;5.406;2023-06-19T02:41:21;2.58;;;1.98;;
69900;SDS011;57183;50.930;5.406;2023-06-19T02:43:46;4.03;;;2.50;;
69900;SDS011;57183;50.930;5.406;2023-06-19T02:46:12;3.47;;;2.50;;
69900;SDS011;57183;50.930;5.406;2023-06-19T02:48:38;3.53;;;2.70;;
69900;SDS011;57183;50.930;5.406;2023-06-19T02:51:03;4.07;;;2.78;;
69900;SDS011;57183;50.930;5.406;2023-06-19T02:53:29;2.90;;;1.92;;
69900;SDS011;57183;50.930;5.406;2023-06-19T02:55:55;2.60;;;2.28;;
69900;SDS011;57183;50.930;5.406;2023-06-19T02:58:20;2.80;;;2.13;;
69900;SDS011;57183;50.930;5.406;2023-06-19T03:00:46;2.85;;;2.47;;
69900;SDS011;57183;50.930;5.406;2023-06-19T03:03:12;5.70;;;2.60;;
69900;SDS011;57183;50.930;5.406;2023-06-19T03:05:38;4.80;;;2.15;;
69900;SDS011;57183;50.930;5.406;2023-06-19T03:08:03;2.90;;;2.30;;
69900;SDS011;57183;50.930;5.406;2023-06-19T03:10:30;2.88;;;2.22;;
69900;SDS011;57183;50.930;5.406;2023-06-19T03:12:55;5.40;;;2.53;;
69900;SDS011;57183;50.930;5.406;2023-06-19T03:15:23;3.13;;;2.83;;
69900;SDS011;57183;50.930;5.406;2023-06-19T03:17:49;2.83;;;2.20;;
69900;SDS011;57183;50.930;5.406;2023-06-19T03:20:15;4.05;;;2.63;;
69900;SDS011;57183;50.930;5.406;2023-06-19T03:22:41;3.13;;;2.45;;
69900;SDS011;57183;50.930;5.406;2023-06-19T03:25:07;3.58;;;2.78;;
69900;SDS011;57183;50.930;5.406;2023-06-19T03:27:33;5.93;;;2.33;;
69900;SDS011;57183;50.930;5.406;2023-06-19T03:30:00;3.45;;;2.80;;
69900;SDS011;57183;50.930;5.406;2023-06-19T03:32:26;3.65;;;2.35;;
69900;SDS011;57183;50.930;5.406;2023-06-19T03:34:51;3.00;;;2.50;;
69900;SDS011;57183;50.930;5.406;2023-06-19T03:37:17;2.92;;;2.58;;
69900;SDS011;57183;50.930;5.406;2023-06-19T03:39:43;3.45;;;2.28;;
69900;SDS011;57183;50.930;5.406;2023-06-19T03:42:08;5.30;;;2.53;;
69900;SDS011;57183;50.930;5.406;2023-06-19T03:44:34;3.47;;;2.78;;
69900;SDS011;57183;50.930;5.406;2023-06-19T03:46:59;3.20;;;2.80;;
69900;SDS011;57183;50.930;5.406;2023-06-19T03:49:25;3.00;;;2.70;;
69900;SDS011;57183;50.930;5.406;2023-06-19T03:51:51;4.82;;;2.90;;
69900;SDS011;57183;50.930;5.406;2023-06-19T03:54:19;4.40;;;2.83;;
69900;SDS011;57183;50.930;5.406;2023-06-19T03:56:45;3.90;;;3.10;;
69900;SDS011;57183;50.930;5.406;2023-06-19T03:59:11;7.10;;;3.47;;
69900;SDS011;57183;50.930;5.406;2023-06-19T04:01:36;7.05;;;3.75;;
69900;SDS011;57183;50.930;5.406;2023-06-19T04:04:02;5.82;;;3.35;;
69900;SDS011;57183;50.930;5.406;2023-06-19T04:06:28;5.22;;;4.30;;
69900;SDS011;57183;50.930;5.406;2023-06-19T04:08:53;4.65;;;4.05;;
69900;SDS011;57183;50.930;5.406;2023-06-19T04:11:19;6.25;;;4.10;;
69900;SDS011;57183;50.930;5.406;2023-06-19T04:13:45;8.00;;;4.80;;
69900;SDS011;57183;50.930;5.406;2023-06-19T04:16:12;5.75;;;5.15;;
69900;SDS011;57183;50.930;5.406;2023-06-19T04:18:37;4.88;;;4.47;;
69900;SDS011;57183;50.930;5.406;2023-06-19T04:21:03;6.97;;;4.45;;
69900;SDS011;57183;50.930;5.406;2023-06-19T04:23:29;4.85;;;3.67;;
69900;SDS011;57183;50.930;5.406;2023-06-19T04:25:54;6.70;;;4.50;;
69900;SDS011;57183;50.930;5.406;2023-06-19T04:28:20;5.57;;;4.93;;
69900;SDS011;57183;50.930;5.406;2023-06-19T04:30:46;5.80;;;4.75;;
69900;SDS011;57183;50.930;5.406;2023-06-19T04:33:11;5.55;;;4.82;;
69900;SDS011;57183;50.930;5.406;2023-06-19T04:35:37;5.22;;;4.65;;
69900;SDS011;57183;50.930;5.406;2023-06-19T04:38:05;4.95;;;4.45;;
69900;SDS011;57183;50.930;5.406;2023-06-19T04:40:31;5.40;;;4.38;;
69900;SDS011;57183;50.930;5.406;2023-06-19T04:42:59;6.05;;;4.43;;
69900;SDS011;57183;50.930;5.406;2023-06-19T04:45:25;6.97;;;4.10;;
69900;SDS011;57183;50.930;5.406;2023-06-19T04:47:51;6.72;;;5.35;;
69900;SDS011;57183;50.930;5.406;2023-06-19T04:50:17;6.90;;;5.13;;
69900;SDS011;57183;50.930;5.406;2023-06-19T04:52:42;6.60;;;4.97;;
69900;SDS011;57183;50.930;5.406;2023-06-19T04:55:08;8.73;;;4.60;;
69900;SDS011;57183;50.930;5.406;2023-06-19T04:57:34;6.25;;;4.45;;
69900;SDS011;57183;50.930;5.406;2023-06-19T05:00:02;5.28;;;3.90;;
69900;SDS011;57183;50.930;5.406;2023-06-19T05:02:30;5.57;;;4.90;;
69900;SDS011;57183;50.930;5.406;2023-06-19T05:04:56;5.18;;;4.25;;
69900;SDS011;57183;50.930;5.406;2023-06-19T05:07:22;4.47;;;4.00;;
69900;SDS011;57183;50.930;5.406;2023-06-19T05:09:47;6.35;;;4.30;;
69900;SDS011;57183;50.930;5.406;2023-06-19T05:12:13;5.03;;;4.07;;
69900;SDS011;57183;50.930;5.406;2023-06-19T05:14:39;3.55;;;3.25;;
69900;SDS011;57183;50.930;5.406;2023-06-19T05:17:05;4.70;;;4.20;;
69900;SDS011;57183;50.930;5.406;2023-06-19T05:19:31;4.50;;;4.10;;
69900;SDS011;57183;50.930;5.406;2023-06-19T05:21:56;6.75;;;4.38;;
69900;SDS011;57183;50.930;5.406;2023-06-19T05:24:22;5.68;;;4.20;;
69900;SDS011;57183;50.930;5.406;2023-06-19T05:26:47;5.00;;;4.45;;
69900;SDS011;57183;50.930;5.406;2023-06-19T05:29:13;6.45;;;4.32;;
69900;SDS011;57183;50.930;5.406;2023-06-19T05:31:39;4.63;;;3.78;;
69900;SDS011;57183;50.930;5.406;2023-06-19T05:34:05;5.88;;;4.55;;
69900;SDS011;57183;50.930;5.406;2023-06-19T05:36:31;6.13;;;5.53;;
69900;SDS011;57183;50.930;5.406;2023-06-19T05:38:57;5.55;;;4.40;;
69900;SDS011;57183;50.930;5.406;2023-06-19T05:41:22;5.78;;;4.28;;
69900;SDS011;57183;50.930;5.406;2023-06-19T05:43:48;6.35;;;5.22;;
69900;SDS011;57183;50.930;5.406;2023-06-19T05:46:14;5.22;;;4.72;;
69900;SDS011;57183;50.930;5.406;2023-06-19T05:48:39;9.18;;;4.68;;
69900;SDS011;57183;50.930;5.406;2023-06-19T05:51:06;6.43;;;4.55;;
69900;SDS011;57183;50.930;5.406;2023-06-19T05:53:31;4.80;;;4.35;;
69900;SDS011;57183;50.930;5.406;2023-06-19T05:55:57;5.30;;;4.45;;
69900;SDS011;57183;50.930;5.406;2023-06-19T05:58:23;6.53;;;3.97;;
69900;SDS011;57183;50.930;5.406;2023-06-19T06:00:50;5.68;;;3.45;;
69900;SDS011;57183;50.930;5.406;2023-06-19T06:03:22;5.32;;;3.40;;
69900;SDS011;57183;50.930;5.406;2023-06-19T06:05:49;4.13;;;2.80;;
69900;SDS011;57183;50.930;5.406;2023-06-19T06:08:14;3.72;;;3.17;;
69900;SDS011;57183;50.930;5.406;2023-06-19T06:10:40;3.33;;;2.45;;
69900;SDS011;57183;50.930;5.406;2023-06-19T06:13:06;3.00;;;2.70;;
69900;SDS011;57183;50.930;5.406;2023-06-19T06:15:32;3.42;;;2.88;;
69900;SDS011;57183;50.930;5.406;2023-06-19T06:17:57;3.80;;;2.80;;
69900;SDS011;57183;50.930;5.406;2023-06-19T06:20:24;4.50;;;3.00;;
69900;SDS011;57183;50.930;5.406;2023-06-19T06:22:49;3.00;;;2.70;;
69900;SDS011;57183;50.930;5.406;2023-06-19T06:25:15;4.00;;;2.50;;
69900;SDS011;57183;50.930;5.406;2023-06-19T06:27:41;5.22;;;3.13;;
69900;SDS011;57183;50.930;5.406;2023-06-19T06:30:07;7.40;;;3.00;;
69900;SDS011;57183;50.930;5.406;2023-06-19T06:32:33;5.10;;;2.70;;
69900;SDS011;57183;50.930;5.406;2023-06-19T06:34:59;4.00;;;3.60;;
69900;SDS011;57183;50.930;5.406;2023-06-19T06:37:25;5.32;;;4.15;;
69900;SDS011;57183;50.930;5.406;2023-06-19T06:39:50;5.75;;;3.10;;
69900;SDS011;57183;50.930;5.406;2023-06-19T06:42:17;4.63;;;3.53;;
69900;SDS011;57183;50.930;5.406;2023-06-19T06:44:44;3.72;;;3.20;;
69900;SDS011;57183;50.930;5.406;2023-06-19T06:47:10;4.90;;;4.40;;
69900;SDS011;57183;50.930;5.406;2023-06-19T06:49:35;4.70;;;3.95;;
69900;SDS011;57183;50.930;5.406;2023-06-19T06:52:01;6.15;;;4.20;;
69900;SDS011;57183;50.930;5.406;2023-06-19T06:54:28;5.20;;;4.63;;
69900;SDS011;57183;50.930;5.406;2023-06-19T06:56:54;8.07;;;5.15;;
69900;SDS011;57183;50.930;5.406;2023-06-19T06:59:23;5.13;;;4.32;;
69900;SDS011;57183;50.930;5.406;2023-06-19T07:01:49;6.25;;;4.15;;
69900;SDS011;57183;50.930;5.406;2023-06-19T07:04:15;5.57;;;3.53;;
69900;SDS011;57183;50.930;5.406;2023-06-19T07:06:41;6.88;;;5.70;;
69900;SDS011;57183;50.930;5.406;2023-06-19T07:09:07;7.05;;;5.30;;
69900;SDS011;57183;50.930;5.406;2023-06-19T07:11:32;9.23;;;5.30;;
69900;SDS011;57183;50.930;5.406;2023-06-19T07:13:58;6.80;;;5.22;;
69900;SDS011;57183;50.930;5.406;2023-06-19T07:16:24;4.80;;;4.30;;
69900;SDS011;57183;50.930;5.406;2023-06-19T07:18:49;7.32;;;5.18;;
69900;SDS011;57183;50.930;5.406;2023-06-19T07:21:15;5.85;;;5.35;;
69900;SDS011;57183;50.930;5.406;2023-06-19T07:23:41;6.05;;;5.45;;
69900;SDS011;57183;50.930;5.406;2023-06-19T07:26:10;7.05;;;4.05;;
69900;SDS011;57183;50.930;5.406;2023-06-19T07:28:36;4.15;;;3.75;;
69900;SDS011;57183;50.930;5.406;2023-06-19T07:31:02;4.93;;;4.43;;
69900;SDS011;57183;50.930;5.406;2023-06-19T07:33:28;5.65;;;5.13;;
69900;SDS011;57183;50.930;5.406;2023-06-19T07:35:54;4.88;;;4.38;;
69900;SDS011;57183;50.930;5.406;2023-06-19T07:38:20;4.88;;;4.47;;
69900;SDS011;57183;50.930;5.406;2023-06-19T07:40:46;6.13;;;4.60;;
69900;SDS011;57183;50.930;5.406;2023-06-19T07:43:12;5.28;;;4.30;;
69900;SDS011;57183;50.930;5.406;2023-06-19T07:45:37;5.13;;;4.63;;
69900;SDS011;57183;50.930;5.406;2023-06-19T07:48:03;4.45;;;4.05;;
69900;SDS011;57183;50.930;5.406;2023-06-19T07:50:29;6.38;;;5.00;;
69900;SDS011;57183;50.930;5.406;2023-06-19T07:52:54;5.28;;;4.55;;
69900;SDS011;57183;50.930;5.406;2023-06-19T07:55:20;7.50;;;4.82;;
69900;SDS011;57183;50.930;5.406;2023-06-19T07:57:45;4.95;;;4.53;;
69900;SDS011;57183;50.930;5.406;2023-06-19T08:00:11;5.72;;;5.22;;
69900;SDS011;57183;50.930;5.406;2023-06-19T08:02:41;6.47;;;5.47;;
69900;SDS011;57183;50.930;5.406;2023-06-19T08:05:07;5.53;;;5.00;;
69900;SDS011;57183;50.930;5.406;2023-06-19T08:07:34;5.90;;;5.38;;
69900;SDS011;57183;50.930;5.406;2023-06-19T08:10:00;6.13;;;5.10;;
69900;SDS011;57183;50.930;5.406;2023-06-19T08:12:28;7.07;;;5.30;;
69900;SDS011;57183;50.930;5.406;2023-06-19T08:14:54;5.53;;;4.63;;
69900;SDS011;57183;50.930;5.406;2023-06-19T08:17:20;10.52;;;4.85;;
69900;SDS011;57183;50.930;5.406;2023-06-19T08:19:46;5.90;;;4.65;;
69900;SDS011;57183;50.930;5.406;2023-06-19T08:22:12;6.70;;;3.92;;
69900;SDS011;57183;50.930;5.406;2023-06-19T08:24:37;6.43;;;5.13;;
69900;SDS011;57183;50.930;5.406;2023-06-19T08:27:05;7.07;;;4.45;;
69900;SDS011;57183;50.930;5.406;2023-06-19T08:29:30;4.90;;;4.18;;
69900;SDS011;57183;50.930;5.406;2023-06-19T08:31:56;5.38;;;4.13;;
69900;SDS011;57183;50.930;5.406;2023-06-19T08:34:22;5.93;;;4.57;;
69900;SDS011;57183;50.930;5.406;2023-06-19T08:36:47;4.18;;;3.78;;
69900;SDS011;57183;50.930;5.406;2023-06-19T08:39:13;5.00;;;4.38;;
69900;SDS011;57183;50.930;5.406;2023-06-19T08:41:39;5.00;;;3.95;;
69900;SDS011;57183;50.930;5.406;2023-06-19T08:44:06;6.63;;;3.83;;
69900;SDS011;57183;50.930;5.406;2023-06-19T08:46:32;5.90;;;4.28;;
69900;SDS011;57183;50.930;5.406;2023-06-19T08:48:59;4.30;;;3.55;;
69900;SDS011;57183;50.930;5.406;2023-06-19T08:51:26;5.00;;;3.33;;
69900;SDS011;57183;50.930;5.406;2023-06-19T08:54:00;4.78;;;3.35;;
69900;SDS011;57183;50.930;5.406;2023-06-19T08:56:28;6.32;;;3.83;;
69900;SDS011;57183;50.930;5.406;2023-06-19T08:58:54;4.40;;;3.28;;
69900;SDS011;57183;50.930;5.406;2023-06-19T09:01:19;5.30;;;3.45;;
69900;SDS011;57183;50.930;5.406;2023-06-19T09:03:46;3.53;;;3.22;;
69900;SDS011;57183;50.930;5.406;2023-06-19T09:06:16;4.43;;;3.65;;
69900;SDS011;57183;50.930;5.406;2023-06-19T09:08:43;5.90;;;4.43;;
69900;SDS011;57183;50.930;5.406;2023-06-19T09:11:08;3.47;;;3.17;;
69900;SDS011;57183;50.930;5.406;2023-06-19T09:13:36;6.25;;;3.35;;
69900;SDS011;57183;50.930;5.406;2023-06-19T09:16:05;4.15;;;3.65;;
69900;SDS011;57183;50.930;5.406;2023-06-19T09:18:47;4.88;;;4.20;;
69900;SDS011;57183;50.930;5.406;2023-06-19T09:21:20;6.10;;;4.10;;
69900;SDS011;57183;50.930;5.406;2023-06-19T09:23:49;5.38;;;4.72;;
69900;SDS011;57183;50.930;5.406;2023-06-19T09:26:16;4.40;;;4.00;;
69900;SDS011;57183;50.930;5.406;2023-06-19T09:28:44;4.10;;;3.70;;
69900;SDS011;57183;50.930;5.406;2023-06-19T09:31:10;5.50;;;4.47;;
69900;SDS011;57183;50.930;5.406;2023-06-19T09:33:37;5.93;;;4.15;;
69900;SDS011;57183;50.930;5.406;2023-06-19T09:36:04;4.68;;;3.65;;
69900;SDS011;57183;50.930;5.406;2023-06-19T09:38:34;4.45;;;3.35;;
69900;SDS011;57183;50.930;5.406;2023-06-19T09:41:04;3.58;;;3.10;;
69900;SDS011;57183;50.930;5.406;2023-06-19T09:43:37;4.80;;;3.47;;
69900;SDS011;57183;50.930;5.406;2023-06-19T09:46:05;5.78;;;4.97;;
69900;SDS011;57183;50.930;5.406;2023-06-19T09:48:32;4.40;;;3.65;;
69900;SDS011;57183;50.930;5.406;2023-06-19T09:51:16;6.60;;;4.20;;
69900;SDS011;57183;50.930;5.406;2023-06-19T09:53:44;4.57;;;3.72;;
69900;SDS011;57183;50.930;5.406;2023-06-19T09:56:14;3.58;;;3.22;;
69900;SDS011;57183;50.930;5.406;2023-06-19T09:58:42;6.78;;;3.72;;
69900;SDS011;57183;50.930;5.406;2023-06-19T10:01:09;5.93;;;3.47;;
69900;SDS011;57183;50.930;5.406;2023-06-19T10:03:36;5.78;;;3.67;;
69900;SDS011;57183;50.930;5.406;2023-06-19T10:06:03;6.13;;;3.70;;
69900;SDS011;57183;50.930;5.406;2023-06-19T10:08:39;4.40;;;4.00;;
69900;SDS011;57183;50.930;5.406;2023-06-19T10:11:06;4.10;;;3.72;;
69900;SDS011;57183;50.930;5.406;2023-06-19T10:13:36;5.35;;;3.78;;
69900;SDS011;57183;50.930;5.406;2023-06-19T10:16:06;4.38;;;3.45;;
69900;SDS011;57183;50.930;5.406;2023-06-19T10:18:43;5.15;;;4.68;;
69900;SDS011;57183;50.930;5.406;2023-06-19T10:21:20;3.60;;;3.28;;
69900;SDS011;57183;50.930;5.406;2023-06-19T10:23:56;6.95;;;3.85;;
69900;SDS011;57183;50.930;5.406;2023-06-19T10:26:33;5.78;;;4.53;;
69900;SDS011;57183;50.930;5.406;2023-06-19T10:28:59;4.25;;;3.85;;
69900;SDS011;57183;50.930;5.406;2023-06-19T10:31:26;4.15;;;3.78;;
69900;SDS011;57183;50.930;5.406;2023-06-19T10:33:53;6.60;;;4.13;;
69900;SDS011;57183;50.930;5.406;2023-06-19T10:36:22;5.82;;;3.78;;
69900;SDS011;57183;50.930;5.406;2023-06-19T10:38:51;4.78;;;3.13;;
69900;SDS011;57183;50.930;5.406;2023-06-19T10:41:17;6.97;;;3.85;;
69900;SDS011;57183;50.930;5.406;2023-06-19T10:43:57;6.75;;;4.00;;
69900;SDS011;57183;50.930;5.406;2023-06-19T10:46:24;7.07;;;3.80;;
69900;SDS011;57183;50.930;5.406;2023-06-19T10:48:55;3.78;;;3.42;;
69900;SDS011;57183;50.930;5.406;2023-06-19T10:51:25;5.43;;;4.22;;
69900;SDS011;57183;50.930;5.406;2023-06-19T10:53:53;5.30;;;4.13;;
69900;SDS011;57183;50.930;5.406;2023-06-19T10:56:20;5.45;;;3.58;;
69900;SDS011;57183;50.930;5.406;2023-06-19T10:58:46;4.25;;;3.83;;
69900;SDS011;57183;50.930;5.406;2023-06-19T11:01:12;5.05;;;3.40;;
69900;SDS011;57183;50.930;5.406;2023-06-19T11:03:38;7.18;;;4.38;;
69900;SDS011;57183;50.930;5.406;2023-06-19T11:06:03;5.68;;;3.83;;
69900;SDS011;57183;50.930;5.406;2023-06-19T11:08:30;6.90;;;3.97;;
69900;SDS011;57183;50.930;5.406;2023-06-19T11:10:55;4.70;;;3.65;;
69900;SDS011;57183;50.930;5.406;2023-06-19T11:13:21;4.40;;;4.00;;
69900;SDS011;57183;50.930;5.406;2023-06-19T11:15:47;4.30;;;3.72;;
69900;SDS011;57183;50.930;5.406;2023-06-19T11:18:17;6.35;;;3.90;;
69900;SDS011;57183;50.930;5.406;2023-06-19T11:20:47;7.25;;;4.32;;
69900;SDS011;57183;50.930;5.406;2023-06-19T11:23:14;4.85;;;4.30;;
69900;SDS011;57183;50.930;5.406;2023-06-19T11:25:41;7.85;;;5.10;;
69900;SDS011;57183;50.930;5.406;2023-06-19T11:28:14;5.40;;;4.15;;
69900;SDS011;57183;50.930;5.406;2023-06-19T11:30:42;6.10;;;4.60;;
69900;SDS011;57183;50.930;5.406;2023-06-19T11:33:20;5.35;;;4.13;;
69900;SDS011;57183;50.930;5.406;2023-06-19T11:35:47;7.55;;;4.22;;
69900;SDS011;57183;50.930;5.406;2023-06-19T11:38:20;8.40;;;4.07;;
69900;SDS011;57183;50.930;5.406;2023-06-19T11:40:46;5.32;;;4.82;;
69900;SDS011;57183;50.930;5.406;2023-06-19T11:43:23;6.25;;;4.70;;
69900;SDS011;57183;50.930;5.406;2023-06-19T11:46:05;6.70;;;4.53;;
69900;SDS011;57183;50.930;5.406;2023-06-19T11:48:32;7.55;;;3.92;;
69900;SDS011;57183;50.930;5.406;2023-06-19T11:51:02;4.90;;;3.42;;
69900;SDS011;57183;50.930;5.406;2023-06-19T11:53:28;4.78;;;4.28;;
69900;SDS011;57183;50.930;5.406;2023-06-19T11:55:54;5.28;;;4.05;;
69900;SDS011;57183;50.930;5.406;2023-06-19T11:58:20;6.15;;;4.60;;
69900;SDS011;57183;50.930;5.406;2023-06-19T12:00:46;6.32;;;4.78;;
69900;SDS011;57183;50.930;5.406;2023-06-19T12:03:13;5.40;;;4.10;;
69900;SDS011;57183;50.930;5.406;2023-06-19T12:05:38;5.40;;;4.75;;
69900;SDS011;57183;50.930;5.406;2023-06-19T12:08:04;5.50;;;3.67;;
69900;SDS011;57183;50.930;5.406;2023-06-19T12:10:31;9.10;;;5.25;;
69900;SDS011;57183;50.930;5.406;2023-06-19T12:12:58;5.25;;;3.90;;
69900;SDS011;57183;50.930;5.406;2023-06-19T12:15:24;7.50;;;5.20;;
69900;SDS011;57183;50.930;5.406;2023-06-19T12:17:50;4.95;;;4.47;;
69900;SDS011;57183;50.930;5.406;2023-06-19T12:20:17;6.63;;;4.55;;
69900;SDS011;57183;50.930;5.406;2023-06-19T12:22:43;5.25;;;4.30;;
69900;SDS011;57183;50.930;5.406;2023-06-19T12:25:09;4.60;;;4.20;;
69900;SDS011;57183;50.930;5.406;2023-06-19T12:27:35;7.63;;;3.92;;
69900;SDS011;57183;50.930;5.406;2023-06-19T12:30:02;7.53;;;4.22;;
69900;SDS011;57183;50.930;5.406;2023-06-19T12:32:28;5.28;;;3.80;;
69900;SDS011;57183;50.930;5.406;2023-06-19T12:34:54;5.70;;;4.22;;
69900;SDS011;57183;50.930;5.406;2023-06-19T12:37:22;5.97;;;4.45;;
69900;SDS011;57183;50.930;5.406;2023-06-19T12:39:52;7.45;;;5.30;;
69900;SDS011;57183;50.930;5.406;2023-06-19T12:42:17;6.03;;;3.97;;
69900;SDS011;57183;50.930;5.406;2023-06-19T12:44:43;4.30;;;3.90;;
69900;SDS011;57183;50.930;5.406;2023-06-19T12:47:10;8.57;;;4.20;;
69900;SDS011;57183;50.930;5.406;2023-06-19T12:49:35;5.13;;;4.13;;
69900;SDS011;57183;50.930;5.406;2023-06-19T12:52:01;4.97;;;3.97;;
69900;SDS011;57183;50.930;5.406;2023-06-19T12:54:27;5.70;;;3.80;;
69900;SDS011;57183;50.930;5.406;2023-06-19T12:56:53;5.82;;;3.65;;
69900;SDS011;57183;50.930;5.406;2023-06-19T12:59:19;6.20;;;4.97;;
69900;SDS011;57183;50.930;5.406;2023-06-19T13:01:44;4.70;;;3.35;;
69900;SDS011;57183;50.930;5.406;2023-06-19T13:04:11;5.78;;;4.30;;
69900;SDS011;57183;50.930;5.406;2023-06-19T13:06:37;4.57;;;3.53;;
69900;SDS011;57183;50.930;5.406;2023-06-19T13:09:05;4.32;;;3.92;;
69900;SDS011;57183;50.930;5.406;2023-06-19T13:11:31;4.80;;;3.53;;
69900;SDS011;57183;50.930;5.406;2023-06-19T13:13:59;4.07;;;3.67;;
69900;SDS011;57183;50.930;5.406;2023-06-19T13:16:27;5.15;;;4.22;;
69900;SDS011;57183;50.930;5.406;2023-06-19T13:18:53;6.38;;;4.05;;
69900;SDS011;57183;50.930;5.406;2023-06-19T13:21:19;4.53;;;3.70;;
69900;SDS011;57183;50.930;5.406;2023-06-19T13:23:45;3.85;;;3.40;;
69900;SDS011;57183;50.930;5.406;2023-06-19T13:26:11;4.88;;;4.38;;
69900;SDS011;57183;50.930;5.406;2023-06-19T13:28:36;7.55;;;3.42;;
69900;SDS011;57183;50.930;5.406;2023-06-19T13:31:02;4.43;;;3.30;;
69900;SDS011;57183;50.930;5.406;2023-06-19T13:33:28;4.00;;;3.42;;
69900;SDS011;57183;50.930;5.406;2023-06-19T13:35:54;4.30;;;2.53;;
69900;SDS011;57183;50.930;5.406;2023-06-19T13:38:20;4.93;;;3.08;;
69900;SDS011;57183;50.930;5.406;2023-06-19T13:40:46;5.35;;;3.50;;
69900;SDS011;57183;50.930;5.406;2023-06-19T13:43:12;5.55;;;3.80;;
69900;SDS011;57183;50.930;5.406;2023-06-19T13:45:38;5.13;;;3.80;;
69900;SDS011;57183;50.930;5.406;2023-06-19T13:48:04;4.07;;;3.67;;
69900;SDS011;57183;50.930;5.406;2023-06-19T13:50:30;4.38;;;3.85;;
69900;SDS011;57183;50.930;5.406;2023-06-19T13:52:57;6.45;;;3.55;;
69900;SDS011;57183;50.930;5.406;2023-06-19T13:55:23;3.63;;;3.30;;
69900;SDS011;57183;50.930;5.406;2023-06-19T13:57:49;3.15;;;2.22;;
69900;SDS011;57183;50.930;5.406;2023-06-19T14:00:15;6.18;;;3.30;;
69900;SDS011;57183;50.930;5.406;2023-06-19T14:02:41;4.20;;;3.60;;
69900;SDS011;57183;50.930;5.406;2023-06-19T14:05:07;3.55;;;3.22;;
69900;SDS011;57183;50.930;5.406;2023-06-19T14:07:34;3.70;;;2.95;;
69900;SDS011;57183;50.930;5.406;2023-06-19T14:10:01;4.07;;;2.88;;
69900;SDS011;57183;50.930;5.406;2023-06-19T14:12:29;3.40;;;3.10;;
69900;SDS011;57183;50.930;5.406;2023-06-19T14:14:55;4.93;;;3.00;;
69900;SDS011;57183;50.930;5.406;2023-06-19T14:17:21;2.75;;;2.55;;
69900;SDS011;57183;50.930;5.406;2023-06-19T14:19:47;3.08;;;2.60;;
69900;SDS011;57183;50.930;5.406;2023-06-19T14:22:13;3.28;;;2.65;;
69900;SDS011;57183;50.930;5.406;2023-06-19T14:24:38;5.50;;;3.65;;
69900;SDS011;57183;50.930;5.406;2023-06-19T14:27:04;3.03;;;2.53;;
69900;SDS011;57183;50.930;5.406;2023-06-19T14:29:30;2.78;;;2.42;;
69900;SDS011;57183;50.930;5.406;2023-06-19T14:31:56;3.60;;;2.78;;
69900;SDS011;57183;50.930;5.406;2023-06-19T14:34:21;3.42;;;2.90;;
69900;SDS011;57183;50.930;5.406;2023-06-19T14:36:47;2.70;;;2.47;;
69900;SDS011;57183;50.930;5.406;2023-06-19T14:39:13;4.00;;;2.38;;
69900;SDS011;57183;50.930;5.406;2023-06-19T14:41:39;2.95;;;2.70;;
69900;SDS011;57183;50.930;5.406;2023-06-19T14:44:04;2.83;;;2.28;;
69900;SDS011;57183;50.930;5.406;2023-06-19T14:46:31;2.63;;;2.40;;
69900;SDS011;57183;50.930;5.406;2023-06-19T14:48:57;3.90;;;3.40;;